This is the latest recevied weather packets stored in our database for station/object KE8WMS. If no packets are shown the sender has not sent any weather packets the latest 10 day(s).
| Time | Temp. | Humidity | Pressure | Rain* | Wind** | Luminosity | Snow |
|---|---|---|---|---|---|---|---|
| 1777397463 | 21.67° C | 71% | 1006.9 hPa | 0 mm | - | 279 W/m² | - |
| 1777397159 | 21.67° C | 73% | 1007 hPa | 0 mm | - | 877 W/m² | - |
| 1777396856 | 21.11° C | 75% | 1007 hPa | 0 mm | - | 485 W/m² | - |
| 1777396552 | 21.11° C | 77% | 1007.1 hPa | 0 mm | - | 454 W/m² | - |
| 1777396250 | 20.56° C | 77% | 1007 hPa | 0 mm | - | 862 W/m² | - |
| 1777395945 | 21.11° C | 75% | 1006.8 hPa | 0 mm | - | 412 W/m² | - |
| 1777395641 | 21.11° C | 75% | 1006.8 hPa | 0 mm | - | 250 W/m² | - |
| 1777395338 | 19.44° C | 80% | 1007 hPa | 0 mm | - | 861 W/m² | - |
| 1777395035 | 20° C | 77% | 1007 hPa | 0 mm | - | 225 W/m² | - |
| 1777394732 | 20° C | 79% | 1007.5 hPa | 0 mm | - | 915 W/m² | - |
| 1777394428 | 20.56° C | 79% | 1007.6 hPa | 0 mm | - | 853 W/m² | - |
| 1777394124 | 20° C | 78% | 1007.4 hPa | 0 mm | - | 787 W/m² | - |
| 1777393820 | 20° C | 80% | 1007.3 hPa | 0 mm | - | 897 W/m² | - |
| 1777393519 | 20° C | 81% | 1007.4 hPa | 0 mm | - | 781 W/m² | - |
| 1777393215 | 20° C | 80% | 1007.6 hPa | 0 mm | - | 905 W/m² | - |
| 1777392912 | 18.89° C | 81% | 1007.7 hPa | 0 mm | - | 358 W/m² | - |
| 1777392607 | 19.44° C | 80% | 1007.5 hPa | 0 mm | - | 244 W/m² | - |
| 1777392304 | 18.33° C | 83% | 1007.6 hPa | 0 mm | - | 961 W/m² | - |
| 1777392004 | 18.33° C | 82% | 1007.7 hPa | 0 mm | - | 199 W/m² | - |
| 1777391699 | 18.89° C | 82% | 1008.1 hPa | 0 mm | - | 288 W/m² | - |
| 1777391395 | 18.33° C | 82% | 1008 hPa | 0 mm | - | 433 W/m² | - |
| 1777391092 | 18.89° C | 82% | 1007.6 hPa | 0 mm | - | 191 W/m² | - |
| 1777390788 | 18.33° C | 83% | 1007.5 hPa | 0 mm | - | 925 W/m² | - |
| 1777390485 | 18.89° C | 81% | 1007.6 hPa | 0 mm | - | 249 W/m² | - |
| 1777390181 | 18.89° C | 81% | 1007.4 hPa | 0 mm | - | 434 W/m² | - |
* Rain latest hour (hover to see other rain measurements)
** Current wind speed in m/s (hover to see current wind gust speed)